Time;durP1;ratioP1;P1;durP2;ratioP2;P2;SDS_P1;SDS_P2;PMS_P1;PMS_P2;Temp;Humidity;BMP_temperature;BMP_pressure;BME280_temperature;BME280_humidity;BME280_pressure;Samples;Min_cycle;Max_cycle;Signal;HPM_P1;HPM_P2
2021/05/18 00:00:37;;;;;;;;;;;;;;;11.32;83.75;97137.42;1714811;82;24633;-84
2021/05/18 00:03:05;;;;;;;;;;;;;;;11.37;83.77;97137.47;1709498;83;20240;-84
2021/05/18 00:05:32;;;;;;;;;;;;;;;11.39;83.77;97129.82;1720808;81;24759;-84
2021/05/18 00:08:03;;;;;;;;;;;;;;;11.44;83.79;97125.45;1714879;83;21942;-84
2021/05/18 00:13:15;;;;;;;;;;;;;;;11.45;83.83;97134.48;1709070;82;24591;-84
2021/05/18 00:15:44;;;;;;;;;;;;;;;11.49;83.84;97133.22;1684684;82;20207;-84
2021/05/18 00:18:10;;;;;;;;;;;;;;;11.55;83.83;97139.67;1710114;81;25455;-84
2021/05/18 00:20:40;;;;;;;;;;;;;;;11.57;83.81;97142.48;1707451;82;21879;-85
2021/05/18 00:23:07;;;;;;;;;;;;;;;11.59;83.79;97135.30;1716118;82;26190;-84
2021/05/18 00:25:33;;;;;;;;;;;;;;;11.62;83.78;97138.94;1711591;83;24349;-84
2021/05/18 00:27:59;;;;;;;;;;;;;;;11.64;83.76;97137.48;1712692;83;20243;-85
2021/05/18 00:30:26;;;;;;;;;;;;;;;11.64;83.76;97134.87;1715737;83;24733;-84
2021/05/18 00:32:54;;;;;;;;;;;;;;;11.65;83.76;97139.97;1715824;83;20611;-84
2021/05/18 00:35:21;;;;;;;;;;;;;;;11.62;83.73;97146.80;1718626;82;26689;-84
2021/05/18 00:37:50;;;;;;;;;;;;;;;11.61;83.72;97149.58;1719424;82;24534;-84
2021/05/18 00:40:17;;;;;;;;;;;;;;;11.62;83.69;97155.14;1712033;82;20316;-84
2021/05/18 00:42:54;;;;;;;;;;;;;;;11.61;83.65;97158.27;1711323;83;24842;-85
2021/05/18 00:45:28;;;;;;;;;;;;;;;11.58;83.67;97157.23;1718924;83;21949;-84
2021/05/18 00:47:54;;;;;;;;;;;;;;;11.53;83.62;97148.98;1703328;83;26647;-84
2021/05/18 00:50:20;;;;;;;;;;;;;;;11.49;83.60;97158.59;1713570;83;24442;-85
2021/05/18 00:52:46;;;;;;;;;;;;;;;11.42;83.58;97157.50;1710130;83;20197;-85
2021/05/18 00:55:22;;;;;;;;;;;;;;;11.37;83.58;97157.94;1713976;82;24813;-85
2021/05/18 01:00:31;;;;;;;;;;;;;;;11.58;83.58;97156.41;1710856;82;26212;-85
2021/05/18 01:02:57;;;;;;;;;;;;;;;11.65;83.58;97154.38;1715888;83;24395;-85
2021/05/18 01:06:18;;;;;;;;;;;;;;;11.70;83.58;97147.39;1707879;83;20565;-85
2021/05/18 01:07:51;;;;;;;;;;;;;;;11.72;83.60;97155.95;1715781;83;24981;-85
2021/05/18 01:10:17;;;;;;;;;;;;;;;11.71;83.59;97159.05;1715911;83;20334;-85
2021/05/18 01:12:43;;;;;;;;;;;;;;;11.67;83.54;97155.05;1719244;82;20970;-85
2021/05/18 01:15:10;;;;;;;;;;;;;;;11.63;83.57;97155.00;1716249;81;24515;-85
2021/05/18 01:17:37;;;;;;;;;;;;;;;11.58;83.56;97154.61;1689814;83;20271;-85
2021/05/18 01:20:08;;;;;;;;;;;;;;;11.52;83.57;97159.12;1732148;80;24774;-86
2021/05/18 01:22:37;;;;;;;;;;;;;;;11.38;83.54;97156.15;1715521;83;22081;-86
2021/05/18 01:25:04;;;;;;;;;;;;;;;11.33;83.54;97167.89;1717042;82;25953;-86
2021/05/18 01:27:30;;;;;;;;;;;;;;;11.23;83.48;97156.63;1724963;81;24394;-86
2021/05/18 01:29:56;;;;;;;;;;;;;;;10.98;83.50;97170.30;1713802;83;20288;-86
2021/05/18 01:32:23;;;;;;;;;;;;;;;10.86;83.48;97164.88;1719093;82;25435;-85
2021/05/18 01:34:49;;;;;;;;;;;;;;;10.84;83.47;97159.80;1719046;82;22007;-86
2021/05/18 01:37:17;;;;;;;;;;;;;;;10.87;83.46;97150.83;1718182;81;25951;-86
2021/05/18 01:40:04;;;;;;;;;;;;;;;10.88;83.49;97148.08;1713599;82;20237;-85
2021/05/18 01:45:07;;;;;;;;;;;;;;;10.93;83.59;97152.05;1712830;83;24785;-84
2021/05/18 01:47:34;;;;;;;;;;;;;;;10.94;83.65;97141.94;1710556;83;22173;-85
2021/05/18 01:50:01;;;;;;;;;;;;;;;10.94;83.71;97151.92;1720376;81;25954;-85
2021/05/18 01:52:27;;;;;;;;;;;;;;;10.95;83.77;97151.45;1719907;82;24374;-85
2021/05/18 01:54:55;;;;;;;;;;;;;;;10.96;83.85;97157.86;1714425;81;20235;-85
2021/05/18 01:57:23;;;;;;;;;;;;;;;10.97;83.89;97158.66;1712878;83;24860;-85
2021/05/18 01:59:50;;;;;;;;;;;;;;;10.97;83.95;97162.10;1713106;81;22073;-85
2021/05/18 02:02:17;;;;;;;;;;;;;;;10.97;84.00;97162.58;1713552;83;25958;-85
2021/05/18 02:04:45;;;;;;;;;;;;;;;11.00;84.06;97156.60;1716674;82;24372;-85
2021/05/18 02:07:15;;;;;;;;;;;;;;;10.98;84.10;97158.52;1720022;82;20312;-85
2021/05/18 02:09:42;;;;;;;;;;;;;;;10.99;84.14;97160.66;1710020;83;24926;-85
2021/05/18 02:12:09;;;;;;;;;;;;;;;10.95;84.20;97164.05;1714993;82;22069;-85
2021/05/18 02:14:43;;;;;;;;;;;;;;;10.92;84.25;97164.31;1716897;81;26040;-85
2021/05/18 02:20:39;;;;;;;;;;;;;;;10.85;84.32;97165.86;1688793;83;20257;-85
2021/05/18 02:24:36;;;;;;;;;;;;;;;10.83;84.37;97169.92;1699236;83;24225;-85
2021/05/18 02:24:48;;;;;;;;;;;;;;;10.80;84.43;97174.10;1708365;83;22108;-85
2021/05/18 02:27:12;;;;;;;;;;;;;;;10.78;84.46;97182.59;1715586;83;25995;-85
2021/05/18 02:29:40;;;;;;;;;;;;;;;10.77;84.52;97181.42;1714424;83;25121;-85
2021/05/18 02:32:06;;;;;;;;;;;;;;;10.76;84.57;97181.07;1712813;81;20240;-86
2021/05/18 02:34:33;;;;;;;;;;;;;;;10.76;84.60;97178.45;1710638;83;24751;-86
2021/05/18 02:37:01;;;;;;;;;;;;;;;10.79;84.65;97184.73;1689735;83;21404;-85
2021/05/18 02:39:32;;;;;;;;;;;;;;;10.76;84.72;97182.38;1715264;83;26151;-85
2021/05/18 02:41:58;;;;;;;;;;;;;;;10.76;84.77;97183.69;1714410;83;24075;-85
2021/05/18 02:49:54;;;;;;;;;;;;;;;10.78;84.90;97193.06;1716243;82;21538;-85
2021/05/18 02:52:20;;;;;;;;;;;;;;;10.78;84.94;97193.55;1720453;83;21125;-86
2021/05/18 02:54:53;;;;;;;;;;;;;;;10.79;85.02;97196.52;1710028;83;24428;-86
2021/05/18 02:57:19;;;;;;;;;;;;;;;10.80;85.07;97197.66;1687658;84;20215;-85
2021/05/18 02:59:46;;;;;;;;;;;;;;;10.81;85.09;97201.94;1680360;83;25651;-85
2021/05/18 03:02:12;;;;;;;;;;;;;;;10.83;85.14;97213.58;1665329;84;22322;-85
2021/05/18 03:04:38;;;;;;;;;;;;;;;10.86;85.17;97211.98;1673697;84;21047;-85
2021/05/18 03:07:04;;;;;;;;;;;;;;;10.89;85.23;97216.95;1674004;84;24603;-85
2021/05/18 03:09:31;;;;;;;;;;;;;;;10.88;85.27;97214.81;1673365;84;20341;-85
2021/05/18 03:11:57;;;;;;;;;;;;;;;10.90;85.31;97217.30;1661667;84;24783;-84
2021/05/18 03:14:23;;;;;;;;;;;;;;;10.93;85.33;97218.80;1686059;84;20359;-85
2021/05/18 03:16:49;;;;;;;;;;;;;;;10.94;85.39;97226.52;1676820;84;26121;-85
2021/05/18 03:19:17;;;;;;;;;;;;;;;10.92;85.42;97224.52;1689296;84;25015;-85
2021/05/18 03:21:44;;;;;;;;;;;;;;;10.87;85.44;97222.32;1665024;84;20279;-86
2021/05/18 03:24:14;;;;;;;;;;;;;;;10.87;85.48;97229.34;1680678;84;24901;-86
2021/05/18 03:26:47;;;;;;;;;;;;;;;10.87;85.50;97227.55;1652405;84;21678;-86
2021/05/18 03:29:23;;;;;;;;;;;;;;;10.90;85.52;97230.39;1652129;84;21966;-85
2021/05/18 03:34:36;;;;;;;;;;;;;;;10.96;85.59;97233.77;1682114;84;20205;-86
2021/05/18 03:37:09;;;;;;;;;;;;;;;10.97;85.63;97239.80;1673674;84;24963;-86
2021/05/18 03:39:33;;;;;;;;;;;;;;;10.96;85.68;97232.45;1669522;84;21965;-86
2021/05/18 03:42:27;;;;;;;;;;;;;;;10.93;85.69;97239.27;1680256;84;26834;-86
2021/05/18 03:52:52;;;;;;;;;;;;;;;10.87;85.73;97256.83;1649536;86;22852;-85
2021/05/18 04:03:42;;;;;;;;;;;;;;;11.00;85.85;97270.95;1685813;83;24913;-86
2021/05/18 04:16:59;;;;;;;;;;;;;;;11.07;85.93;97275.52;1657618;84;24796;-86
2021/05/18 04:19:12;;;;;;;;;;;;;;;11.08;85.97;97286.30;1659959;84;21976;-86
2021/05/18 04:21:55;;;;;;;;;;;;;;;11.06;85.95;97282.19;1679264;83;26135;-86
2021/05/18 04:24:53;;;;;;;;;;;;;;;11.04;85.95;97283.62;1715131;83;24438;-86
2021/05/18 04:48:31;;;;;;;;;;;;;;;11.07;86.07;97293.84;1720661;81;25990;-85
2021/05/18 04:53:37;;;;;;;;;;;;;;;11.06;86.09;97300.52;1723933;81;20585;-86
2021/05/18 05:01:38;;;;;;;;;;;;;;;11.08;86.14;97300.70;1608616;88;26154;-85
2021/05/18 05:04:13;;;;;;;;;;;;;;;11.07;86.14;97308.23;1615079;88;25020;-85
2021/05/18 05:14:44;;;;;;;;;;;;;;;11.16;86.16;97313.12;1600109;88;26015;-94
2021/05/18 05:17:10;;;;;;;;;;;;;;;11.19;86.17;97318.06;1600261;88;24457;-93
2021/05/18 05:19:36;;;;;;;;;;;;;;;11.20;86.20;97317.94;1606085;88;20614;-94
2021/05/18 05:22:08;;;;;;;;;;;;;;;11.23;86.20;97323.39;1610807;88;24991;-92
2021/05/18 05:24:54;;;;;;;;;;;;;;;11.24;86.22;97326.33;1690154;83;22007;-93
2021/05/18 05:27:28;;;;;;;;;;;;;;;11.23;86.22;97328.16;1669929;85;25633;-94
2021/05/18 05:30:02;;;;;;;;;;;;;;;11.24;86.24;97331.57;1687325;84;24433;-94
2021/05/18 05:32:38;;;;;;;;;;;;;;;11.24;86.21;97334.19;1684608;85;20327;-94
2021/05/18 05:35:10;;;;;;;;;;;;;;;11.24;86.24;97337.64;1679250;85;25483;-94
2021/05/18 05:37:48;;;;;;;;;;;;;;;11.23;86.24;97336.01;1685529;83;22653;-91
2021/05/18 05:40:27;;;;;;;;;;;;;;;11.26;86.23;97341.44;1681094;84;25373;-91
2021/05/18 05:42:53;;;;;;;;;;;;;;;11.27;86.24;97340.48;1687229;83;24483;-93
2021/05/18 05:45:23;;;;;;;;;;;;;;;11.27;86.23;97332.63;1687515;84;20283;-92
2021/05/18 05:47:50;;;;;;;;;;;;;;;11.27;86.27;97341.31;1685536;83;24811;-91
2021/05/18 05:50:16;;;;;;;;;;;;;;;11.28;86.26;97339.52;1687074;84;21973;-91
2021/05/18 05:52:42;;;;;;;;;;;;;;;11.28;86.28;97337.73;1687101;84;25932;-92
2021/05/18 05:55:10;;;;;;;;;;;;;;;11.27;86.27;97338.69;1685722;84;24495;-92
2021/05/18 05:57:42;;;;;;;;;;;;;;;11.28;86.28;97336.42;1676098;84;20321;-91
2021/05/18 06:00:13;;;;;;;;;;;;;;;11.30;86.29;97339.70;1681378;84;24839;-91
2021/05/18 06:02:40;;;;;;;;;;;;;;;11.33;86.31;97336.83;1680791;84;22123;-92
2021/05/18 06:05:14;;;;;;;;;;;;;;;11.33;86.30;97342.55;1661711;84;26040;-91
2021/05/18 06:07:43;;;;;;;;;;;;;;;11.36;86.28;97345.36;1664516;84;24522;-92
2021/05/18 06:10:29;;;;;;;;;;;;;;;11.40;86.30;97351.48;1670636;84;20579;-92
2021/05/18 06:13:06;;;;;;;;;;;;;;;11.44;86.32;97355.98;1637180;86;24811;-91
2021/05/18 06:15:58;;;;;;;;;;;;;;;11.48;86.35;97353.42;1667770;84;21928;-91
2021/05/18 06:48:09;;;;;;;;;;;;;;;11.49;86.07;97395.70;1613730;87;24683;-91
2021/05/18 06:50:45;;;;;;;;;;;;;;;11.48;86.04;97397.48;1663268;84;20258;-91
2021/05/18 06:53:11;;;;;;;;;;;;;;;11.44;86.05;97394.80;1716871;82;24714;-91
2021/05/18 06:55:39;;;;;;;;;;;;;;;11.43;86.01;97396.24;1728157;83;22032;-91
2021/05/18 06:58:14;;;;;;;;;;;;;;;11.41;85.98;97396.84;1718846;83;25950;-91
2021/05/18 07:00:42;;;;;;;;;;;;;;;11.42;86.00;97395.89;1712800;83;24541;-91
2021/05/18 07:03:16;;;;;;;;;;;;;;;11.46;85.94;97398.58;1722575;83;20260;-92
2021/05/18 07:06:03;;;;;;;;;;;;;;;11.51;85.96;97404.25;1691627;82;24784;-91
2021/05/18 07:08:54;;;;;;;;;;;;;;;11.55;85.92;97407.77;1692747;83;22000;-91
2021/05/18 07:10:54;;;;;;;;;;;;;;;11.63;85.95;97413.61;1721405;81;26028;-93
2021/05/18 07:13:33;;;;;;;;;;;;;;;11.66;85.98;97411.55;1713125;83;24452;-92
2021/05/18 07:16:01;;;;;;;;;;;;;;;11.70;85.98;97406.85;1726855;83;20260;-91
2021/05/18 07:18:27;;;;;;;;;;;;;;;11.74;86.00;97409.56;1723661;82;24773;-91
2021/05/18 07:20:55;;;;;;;;;;;;;;;11.76;86.03;97412.88;1727306;83;20331;-91
2021/05/18 07:23:24;;;;;;;;;;;;;;;11.78;85.99;97417.52;1716826;83;26007;-91
2021/05/18 07:25:49;;;;;;;;;;;;;;;11.79;86.00;97420.94;1686689;83;24684;-91
2021/05/18 07:28:16;;;;;;;;;;;;;;;11.77;85.98;97415.86;1693325;83;20211;-91
2021/05/18 07:30:43;;;;;;;;;;;;;;;11.77;85.96;97415.03;1712019;82;24755;-91
2021/05/18 07:33:11;;;;;;;;;;;;;;;11.78;85.94;97414.06;1695041;83;22753;-91
2021/05/18 07:35:38;;;;;;;;;;;;;;;11.80;85.91;97415.56;1725598;83;26052;-91
2021/05/18 07:38:05;;;;;;;;;;;;;;;11.81;85.89;97419.02;1728643;82;24662;-90
2021/05/18 07:40:37;;;;;;;;;;;;;;;11.79;85.86;97420.45;1709708;82;20211;-92
2021/05/18 07:43:03;;;;;;;;;;;;;;;11.80;85.84;97422.12;1715461;83;24767;-91
2021/05/18 07:45:35;;;;;;;;;;;;;;;11.83;85.81;97422.34;1718206;83;22180;-92
2021/05/18 07:48:13;;;;;;;;;;;;;;;11.78;85.81;97424.07;1705057;83;26010;-91
2021/05/18 07:50:48;;;;;;;;;;;;;;;11.77;85.76;97418.95;1690337;83;25225;-92
2021/05/18 07:59:17;;;;;;;;;;;;;;;11.75;85.63;97424.33;1715818;82;22188;-90
2021/05/18 08:07:13;;;;;;;;;;;;;;;11.88;85.55;97439.30;1716382;82;20204;-90
2021/05/18 08:09:44;;;;;;;;;;;;;;;11.93;85.56;97441.02;1719672;83;24745;-90
2021/05/18 08:12:09;;;;;;;;;;;;;;;11.97;85.57;97437.14;1712685;82;21390;-91
2021/05/18 08:14:40;;;;;;;;;;;;;;;12.00;85.57;97438.16;1715016;83;26015;-91
2021/05/18 08:17:16;;;;;;;;;;;;;;;12.07;85.52;97438.44;1717349;82;24566;-90
2021/05/18 09:50:06;;;;;;;;;;;;;;;14.49;82.23;97456.06;1672829;84;22105;-90
2021/05/18 10:36:42;;;;;;;;;;;;;;;14.24;77.65;97464.23;1622499;86;24445;-91
2021/05/18 10:39:18;;;;;;;;;;;;;;;14.18;77.45;97468.80;1658361;85;20269;-90
2021/05/18 10:41:45;;;;;;;;;;;;;;;14.13;77.32;97468.92;1692031;84;25060;-91
2021/05/18 10:44:19;;;;;;;;;;;;;;;14.19;77.24;97466.99;1688068;84;20239;-91
2021/05/18 10:46:53;;;;;;;;;;;;;;;14.23;77.21;97461.78;1684230;84;26919;-90
2021/05/18 10:49:40;;;;;;;;;;;;;;;14.30;77.15;97466.75;1690121;84;24691;-90
2021/05/18 10:52:08;;;;;;;;;;;;;;;14.40;77.11;97461.44;1692103;83;20239;-90
2021/05/18 10:54:45;;;;;;;;;;;;;;;14.56;77.11;97451.80;1683084;84;24237;-90
2021/05/18 10:57:16;;;;;;;;;;;;;;;14.75;77.12;97447.31;1682957;84;21977;-92
2021/05/18 10:59:55;;;;;;;;;;;;;;;14.98;77.14;97447.92;1682190;84;26776;-88
2021/05/18 11:02:28;;;;;;;;;;;;;;;15.12;77.11;97443.84;1680596;83;24536;-89
2021/05/18 11:04:58;;;;;;;;;;;;;;;15.23;77.04;97441.40;1680378;84;20207;-89
2021/05/18 11:07:35;;;;;;;;;;;;;;;15.38;76.98;97444.56;1673923;84;24777;-89
2021/05/18 11:10:03;;;;;;;;;;;;;;;15.49;76.90;97442.95;1671025;84;21944;-89
2021/05/18 11:12:29;;;;;;;;;;;;;;;15.60;76.79;97440.52;1671687;83;26136;-89
2021/05/18 11:15:03;;;;;;;;;;;;;;;15.72;76.67;97445.82;1662095;84;24371;-89
2021/05/18 11:17:31;;;;;;;;;;;;;;;15.85;76.56;97439.58;1632820;85;20298;-89
2021/05/18 11:20:08;;;;;;;;;;;;;;;16.03;76.44;97435.95;1665786;84;24912;-89
2021/05/18 11:25:31;;;;;;;;;;;;;;;16.24;76.13;97443.70;1634777;85;21144;-90
2021/05/18 11:28:07;;;;;;;;;;;;;;;16.33;75.80;97430.80;1666789;83;24389;-90
2021/05/18 11:30:41;;;;;;;;;;;;;;;16.48;75.67;97431.42;1670048;83;20669;-90
2021/05/18 11:33:08;;;;;;;;;;;;;;;16.45;75.37;97437.88;1667150;84;24811;-89
2021/05/18 11:35:34;;;;;;;;;;;;;;;16.55;75.07;97424.48;1672496;83;21903;-90
2021/05/18 11:38:16;;;;;;;;;;;;;;;16.68;74.77;97422.17;1665619;84;25929;-90
2021/05/18 11:40:44;;;;;;;;;;;;;;;16.83;74.53;97431.04;1672152;84;24511;-91
2021/05/18 11:43:20;;;;;;;;;;;;;;;16.93;74.28;97426.87;1678059;85;20294;-91
2021/05/18 11:45:47;;;;;;;;;;;;;;;16.95;73.95;97432.32;1672046;83;24753;-90
2021/05/18 11:48:24;;;;;;;;;;;;;;;17.04;73.65;97426.49;1659778;85;21987;-92
2021/05/18 11:50:54;;;;;;;;;;;;;;;17.15;73.18;97421.65;1683428;84;26017;-93
2021/05/18 11:53:27;;;;;;;;;;;;;;;17.19;72.60;97422.61;1661125;85;24625;-90
2021/05/18 11:55:53;;;;;;;;;;;;;;;17.15;71.99;97428.26;1663436;83;20600;-90
2021/05/18 11:58:20;;;;;;;;;;;;;;;17.15;71.51;97429.58;1676022;82;24787;-91
2021/05/18 12:00:51;;;;;;;;;;;;;;;17.18;71.16;97420.98;1714007;83;22251;-90
2021/05/18 12:03:14;;;;;;;;;;;;;;;17.23;70.90;97418.64;1711003;82;26588;-90
2021/05/18 12:05:42;;;;;;;;;;;;;;;17.25;70.59;97419.27;1709151;83;24384;-90
2021/05/18 12:08:10;;;;;;;;;;;;;;;17.26;70.25;97428.37;1705628;83;20647;-90
2021/05/18 12:10:36;;;;;;;;;;;;;;;17.27;69.92;97426.55;1707881;82;24846;-91
2021/05/18 12:13:05;;;;;;;;;;;;;;;17.35;69.67;97431.78;1684320;83;20290;-91
2021/05/18 12:15:32;;;;;;;;;;;;;;;17.43;69.45;97432.58;1710211;83;26253;-90
2021/05/18 12:17:58;;;;;;;;;;;;;;;17.56;69.24;97432.02;1710257;83;24517;-91
2021/05/18 12:20:26;;;;;;;;;;;;;;;17.65;68.73;97430.98;1711304;81;20288;-90
2021/05/18 12:22:56;;;;;;;;;;;;;;;17.72;68.23;97427.96;1716838;81;21921;-90
2021/05/18 12:25:27;;;;;;;;;;;;;;;17.80;67.91;97433.18;1703271;82;21947;-89
2021/05/18 12:27:53;;;;;;;;;;;;;;;17.97;67.66;97428.58;1700316;83;26568;-90
2021/05/18 12:30:20;;;;;;;;;;;;;;;18.02;67.48;97434.66;1719461;81;24549;-90
2021/05/18 12:32:48;;;;;;;;;;;;;;;17.99;67.23;97427.92;1712080;82;20559;-90
2021/05/18 12:35:19;;;;;;;;;;;;;;;18.02;66.93;97432.84;1681300;83;24764;-90
2021/05/18 12:37:47;;;;;;;;;;;;;;;17.98;66.49;97424.45;1694437;83;21945;-89
2021/05/18 12:40:15;;;;;;;;;;;;;;;17.95;66.10;97434.05;1683158;83;25854;-90
2021/05/18 12:42:43;;;;;;;;;;;;;;;17.98;65.86;97432.89;1702412;83;25193;-90
2021/05/18 12:45:11;;;;;;;;;;;;;;;18.02;65.59;97430.69;1722745;81;20582;-91
2021/05/18 12:47:39;;;;;;;;;;;;;;;18.00;65.23;97435.36;1720513;81;24775;-90
2021/05/18 12:50:09;;;;;;;;;;;;;;;18.00;64.87;97440.16;1721371;82;21996;-90
2021/05/18 12:52:49;;;;;;;;;;;;;;;17.87;64.42;97438.59;1708160;81;25902;-90
2021/05/18 12:55:28;;;;;;;;;;;;;;;17.79;64.05;97437.31;1706995;82;24474;-90
2021/05/18 12:57:52;;;;;;;;;;;;;;;17.71;63.68;97431.60;1705357;81;20335;-90
2021/05/18 13:00:26;;;;;;;;;;;;;;;17.73;63.49;97435.41;1714650;82;24730;-90
2021/05/18 13:02:56;;;;;;;;;;;;;;;17.76;63.38;97438.52;1696572;83;22001;-91
2021/05/18 13:05:30;;;;;;;;;;;;;;;17.72;63.16;97434.58;1682162;83;25971;-90
2021/05/18 13:08:12;;;;;;;;;;;;;;;17.61;62.83;97442.92;1679858;83;24415;-90
2021/05/18 13:10:47;;;;;;;;;;;;;;;17.52;62.54;97442.59;1703843;83;20576;-90
2021/05/18 13:13:14;;;;;;;;;;;;;;;17.43;62.28;97435.22;1707874;83;24803;-90
2021/05/18 13:15:43;;;;;;;;;;;;;;;17.41;62.01;97441.67;1710420;83;22099;-90
2021/05/18 13:18:11;;;;;;;;;;;;;;;17.38;61.77;97443.35;1681266;83;25931;-91
2021/05/18 13:20:40;;;;;;;;;;;;;;;17.33;61.56;97446.52;1691612;83;24486;-90
2021/05/18 13:23:11;;;;;;;;;;;;;;;17.29;61.35;97446.52;1696661;83;20204;-90
2021/05/18 13:28:30;;;;;;;;;;;;;;;17.32;61.19;97450.16;1688563;83;22084;-90
2021/05/18 13:30:58;;;;;;;;;;;;;;;17.41;61.17;97455.72;1694735;83;26178;-90
2021/05/18 13:33:27;;;;;;;;;;;;;;;17.59;61.24;97451.48;1692855;83;24521;-89
2021/05/18 13:35:53;;;;;;;;;;;;;;;17.79;61.32;97449.23;1709987;83;20313;-90
2021/05/18 13:38:22;;;;;;;;;;;;;;;17.94;61.35;97456.25;1707559;83;25504;-90
2021/05/18 13:40:49;;;;;;;;;;;;;;;17.96;61.18;97456.88;1698627;83;21991;-89
2021/05/18 13:43:21;;;;;;;;;;;;;;;17.95;60.92;97457.88;1696438;83;26019;-89
2021/05/18 13:45:47;;;;;;;;;;;;;;;17.98;60.76;97462.01;1684996;84;24535;-90
2021/05/18 13:48:14;;;;;;;;;;;;;;;17.95;60.56;97461.84;1679940;83;20354;-90
2021/05/18 13:50:40;;;;;;;;;;;;;;;17.87;60.39;97465.89;1704906;83;24946;-90
2021/05/18 13:53:10;;;;;;;;;;;;;;;17.81;60.26;97471.06;1696892;83;22093;-90
2021/05/18 13:55:36;;;;;;;;;;;;;;;17.69;60.12;97473.28;1680063;84;22820;-90
2021/05/18 13:58:02;;;;;;;;;;;;;;;17.48;59.93;97462.47;1702993;83;24394;-90
2021/05/18 14:00:28;;;;;;;;;;;;;;;17.35;59.74;97470.13;1699104;82;20282;-90
2021/05/18 14:02:58;;;;;;;;;;;;;;;17.31;59.69;97467.51;1698515;83;24794;-89
2021/05/18 14:05:31;;;;;;;;;;;;;;;17.45;59.76;97468.95;1682543;83;20265;-90
2021/05/18 14:08:31;;;;;;;;;;;;;;;17.58;59.82;97467.03;1693718;83;25944;-90
2021/05/18 14:11:05;;;;;;;;;;;;;;;17.65;59.79;97466.70;1698035;83;24443;-90
2021/05/18 14:13:36;;;;;;;;;;;;;;;17.76;59.77;97465.47;1694892;83;20203;-90
2021/05/18 14:16:04;;;;;;;;;;;;;;;17.83;59.75;97457.98;1702608;83;24743;-90
2021/05/18 14:18:39;;;;;;;;;;;;;;;17.84;59.71;97459.61;1678815;83;21768;-90
2021/05/18 14:21:05;;;;;;;;;;;;;;;17.88;59.64;97462.25;1703476;83;26061;-91
2021/05/18 14:26:29;;;;;;;;;;;;;;;18.09;59.52;97456.80;1702060;83;20241;-91
2021/05/18 14:28:56;;;;;;;;;;;;;;;18.26;59.52;97463.11;1705347;83;25070;-91
2021/05/18 14:31:31;;;;;;;;;;;;;;;18.37;59.37;97471.13;1704036;83;22069;-91
2021/05/18 14:33:57;;;;;;;;;;;;;;;18.36;59.20;97470.30;1700751;83;26038;-92
2021/05/18 14:36:24;;;;;;;;;;;;;;;18.22;58.85;97472.91;1685600;83;24512;-92
2021/05/18 14:39:00;;;;;;;;;;;;;;;18.07;58.65;97474.17;1694577;83;20303;-89
2021/05/18 14:44:12;;;;;;;;;;;;;;;17.77;58.08;97481.68;1661919;83;21977;-90
2021/05/18 14:55:29;;;;;;;;;;;;;;;17.50;57.32;97482.97;1699357;83;24997;-90
2021/05/18 14:57:30;;;;;;;;;;;;;;;17.48;57.19;97481.81;1660443;83;22851;-89
2021/05/18 14:59:56;;;;;;;;;;;;;;;17.48;57.20;97496.36;1669476;84;26034;-89
2021/05/18 15:02:22;;;;;;;;;;;;;;;17.53;57.24;97493.19;1691122;83;24404;-90
2021/05/18 15:04:56;;;;;;;;;;;;;;;17.57;57.20;97495.80;1692806;83;20311;-91
2021/05/18 15:07:23;;;;;;;;;;;;;;;17.57;57.08;97491.34;1713515;81;24741;-90
2021/05/18 15:09:49;;;;;;;;;;;;;;;17.54;56.82;97494.34;1696044;83;21929;-91
2021/05/18 15:12:21;;;;;;;;;;;;;;;17.59;56.70;97497.79;1717563;83;21023;-90
2021/05/18 15:14:50;;;;;;;;;;;;;;;17.61;56.59;97502.45;1717408;83;24434;-90
2021/05/18 15:17:34;;;;;;;;;;;;;;;17.64;56.46;97515.81;1722463;82;20639;-90
2021/05/18 15:20:00;;;;;;;;;;;;;;;17.65;56.40;97508.21;1719394;82;24758;-91
2021/05/18 15:22:29;;;;;;;;;;;;;;;17.69;56.35;97509.01;1681722;83;20267;-90
2021/05/18 15:24:59;;;;;;;;;;;;;;;17.67;56.28;97520.28;1721440;81;26185;-91
2021/05/18 15:27:27;;;;;;;;;;;;;;;17.57;56.06;97510.36;1712941;83;24393;-91
2021/05/18 15:29:54;;;;;;;;;;;;;;;17.56;56.01;97514.03;1723902;81;20208;-91
2021/05/18 15:32:20;;;;;;;;;;;;;;;17.54;55.91;97513.36;1717736;83;24999;-91
2021/05/18 15:34:46;;;;;;;;;;;;;;;17.53;55.74;97518.33;1706767;83;22051;-92
2021/05/18 15:37:24;;;;;;;;;;;;;;;17.54;55.63;97519.98;1723554;83;26640;-91
2021/05/18 15:40:13;;;;;;;;;;;;;;;17.51;55.49;97518.48;1694760;83;25087;-90
2021/05/18 15:42:47;;;;;;;;;;;;;;;17.51;55.42;97524.31;1681069;84;20227;-93
2021/05/18 15:45:16;;;;;;;;;;;;;;;17.59;55.49;97521.60;1716865;82;20555;-91
2021/05/18 15:47:54;;;;;;;;;;;;;;;17.61;55.54;97517.00;1721255;83;22479;-92
2021/05/18 15:50:29;;;;;;;;;;;;;;;17.54;55.44;97515.52;1707419;83;26353;-91
2021/05/18 15:52:55;;;;;;;;;;;;;;;17.45;55.40;97516.56;1702900;83;24647;-91
2021/05/18 15:55:22;;;;;;;;;;;;;;;17.31;55.30;97517.76;1716001;83;20268;-90
2021/05/18 15:57:52;;;;;;;;;;;;;;;17.15;55.30;97526.58;1696671;83;24838;-90
2021/05/18 16:00:20;;;;;;;;;;;;;;;16.93;55.38;97541.84;1697551;83;21850;-91
2021/05/18 16:02:53;;;;;;;;;;;;;;;16.76;55.55;97542.86;1684164;84;26039;-89
2021/05/18 16:05:22;;;;;;;;;;;;;;;16.66;55.75;97554.44;1688921;84;24419;-94
2021/05/18 16:07:55;;;;;;;;;;;;;;;16.53;55.82;97550.11;1694987;84;20357;-90
2021/05/18 16:10:16;;;;;;;;;;;;;;;16.45;55.84;97556.73;1693675;84;24782;-90
2021/05/18 16:12:42;;;;;;;;;;;;;;;16.24;55.72;97547.16;1695738;84;22099;-92
2021/05/18 16:15:18;;;;;;;;;;;;;;;16.08;55.68;97556.38;1690005;83;25937;-89
2021/05/18 16:17:46;;;;;;;;;;;;;;;16.02;55.71;97559.66;1693348;83;20194;-91
2021/05/18 16:20:13;;;;;;;;;;;;;;;15.89;55.73;97549.08;1686217;83;20215;-92
2021/05/18 16:22:57;;;;;;;;;;;;;;;15.85;55.80;97548.25;1692308;84;24743;-92
2021/05/18 16:25:23;;;;;;;;;;;;;;;15.81;55.87;97545.12;1693866;84;21963;-90
2021/05/18 16:31:07;;;;;;;;;;;;;;;15.68;56.12;97553.97;1689744;84;24529;-91
2021/05/18 16:33:37;;;;;;;;;;;;;;;15.61;56.29;97556.91;1694874;84;20186;-92
2021/05/18 16:36:04;;;;;;;;;;;;;;;15.56;56.42;97558.38;1695857;84;24939;-91
2021/05/18 16:38:34;;;;;;;;;;;;;;;15.41;56.41;97556.32;1679648;84;20225;-90
2021/05/18 16:41:04;;;;;;;;;;;;;;;15.38;56.50;97561.89;1665495;84;21345;-91
2021/05/18 16:43:33;;;;;;;;;;;;;;;15.20;56.54;97558.53;1691334;83;25244;-90
2021/05/18 16:46:00;;;;;;;;;;;;;;;15.08;56.59;97568.52;1687409;83;20636;-91
2021/05/18 16:48:33;;;;;;;;;;;;;;;15.01;56.66;97571.92;1691780;83;24942;-91
2021/05/18 16:51:00;;;;;;;;;;;;;;;15.07;56.84;97578.72;1705109;83;22066;-91
2021/05/18 16:53:34;;;;;;;;;;;;;;;15.00;56.94;97579.52;1693118;83;26638;-90
2021/05/18 16:56:13;;;;;;;;;;;;;;;14.94;57.03;97583.59;1687518;83;24444;-91
2021/05/18 16:58:41;;;;;;;;;;;;;;;14.95;57.16;97579.95;1692145;84;20213;-90
2021/05/18 17:01:09;;;;;;;;;;;;;;;14.88;57.26;97577.63;1696940;82;24883;-90
2021/05/18 17:03:47;;;;;;;;;;;;;;;14.88;57.34;97580.75;1689302;83;20193;-90
2021/05/18 17:06:14;;;;;;;;;;;;;;;14.89;57.50;97584.52;1693674;83;25975;-91
2021/05/18 17:08:46;;;;;;;;;;;;;;;14.83;57.61;97586.97;1681338;83;24468;-90
2021/05/18 17:11:13;;;;;;;;;;;;;;;14.87;57.77;97594.41;1684202;83;20232;-90
2021/05/18 17:13:44;;;;;;;;;;;;;;;14.89;57.89;97591.63;1699898;82;25348;-90
2021/05/18 17:16:12;;;;;;;;;;;;;;;14.90;58.00;97594.57;1696689;83;22072;-90
2021/05/18 17:18:46;;;;;;;;;;;;;;;14.95;58.12;97594.45;1699541;83;26099;-90
2021/05/18 17:21:15;;;;;;;;;;;;;;;15.14;58.33;97597.38;1694504;83;25271;-91
2021/05/18 17:23:45;;;;;;;;;;;;;;;15.30;58.57;97598.78;1694389;81;20193;-91
2021/05/18 17:26:13;;;;;;;;;;;;;;;15.37;58.78;97599.81;1705906;83;24820;-91
2021/05/18 17:28:44;;;;;;;;;;;;;;;15.30;58.95;97600.09;1723272;83;21997;-90
2021/05/18 17:31:12;;;;;;;;;;;;;;;15.24;59.06;97605.16;1713783;83;26109;-91
2021/05/18 17:33:49;;;;;;;;;;;;;;;15.32;59.25;97603.91;1714817;83;25349;-90
2021/05/18 17:36:24;;;;;;;;;;;;;;;15.43;59.43;97604.95;1713819;83;20567;-90
2021/05/18 17:38:58;;;;;;;;;;;;;;;15.47;59.55;97598.37;1718667;83;24787;-90
2021/05/18 17:41:33;;;;;;;;;;;;;;;15.52;59.59;97603.20;1718365;83;21998;-90
2021/05/18 17:44:00;;;;;;;;;;;;;;;15.53;59.65;97595.13;1716881;82;25911;-91